Bald Eagle
, Park City
Last Weather Update:03/29/2012 12:00:00 PM
Date
ETo
ETc
Rain
Irrigation
Req
Temp
Max
Temp
Min
Temp
Avg
Avg RH
Avg Wind
Avg Solar
inches
inches
incehs
inches
F
F
F
%
%
watts/m2
02/01/2012 0.04" 0.00" 0.00" 0.00" 36.8° 21.4° 27.5° 98.1% 4.3 MPH 90.9w/m2
02/02/2012 0.01" 0.00" 0.00" 0.00" 23.1° 19.1° 21.2° 97.1% 6.0 MPH 45.9w/m2
02/03/2012 0.03" 0.00" 0.12" -0.10" 23.8° 13.3° 17.3° 93.8% 5.0 MPH 153.7w/m2
02/04/2012 0.03" 0.00" 0.00" 0.00" 29.6° 8.6° 16.1° 71.5% 1.9 MPH 137.7w/m2
02/05/2012 0.04" 0.00" 0.00" 0.00" 32.0° 11.9° 19.3° 80.3% 2.5 MPH 144.8w/m2
02/06/2012 0.04" 0.00" 0.00" 0.00" 27.6° 13.4° 18.7° 75.9% 2.1 MPH 154.6w/m2
02/07/2012 0.05" 0.00" 0.00" 0.00" 30.8° 10.2° 20.2° 65.2% 4.4 MPH 158.0w/m2
02/08/2012 0.03" 0.00" 0.01" -0.01" 29.9° 19.9° 25.7° 85.5% 4.4 MPH 69.6w/m2
02/09/2012 0.02" 0.00" 0.01" -0.01" 29.7° 21.0° 24.8° 99.2% 4.5 MPH 86.3w/m2
02/10/2012 0.04" 0.00" 0.00" 0.00" 38.7° 24.1° 29.5° 59.6% 2.1 MPH 107.0w/m2
02/11/2012 0.05" 0.00" 0.00" 0.00" 40.8° 28.7° 32.6° 77.5% 4.5 MPH 94.4w/m2
02/12/2012 0.00" 0.00" 0.00" 0.00" 29.0° 21.4° 25.3° 97.9% 3.7 MPH 12.7w/m2
02/13/2012 0.03" 0.00" 0.23" -0.18" 29.3° 16.8° 21.8° 97.6% 1.9 MPH 92.9w/m2
02/14/2012 0.02" 0.00" 0.01" -0.01" 28.5° 15.5° 20.7° 93.7% 2.3 MPH 96.1w/m2
02/15/2012 0.04" 0.00" 0.01" -0.01" 33.6° 16.3° 22.1° 97.1% 3.5 MPH 139.8w/m2
02/16/2012 0.04" 0.00" 0.02" -0.02" 31.2° 13.4° 19.4° 74.8% 2.1 MPH 138.8w/m2
02/17/2012 0.04" 0.00" 0.00" 0.00" 27.5° 12.9° 19.3° 83.8% 3.1 MPH 143.0w/m2
02/18/2012 0.05" 0.00" 0.00" 0.00" 36.9° 15.1° 24.1° 85.4% 2.0 MPH 161.7w/m2
02/19/2012 0.02" 0.00" 0.00" 0.00" 22.9° 9.6° 15.9° 76.2% 8.1 MPH 120.5w/m2
02/20/2012 0.04" 0.00" 0.00" 0.00" 23.4° 6.5° 14.5° 84.2% 3.8 MPH 164.3w/m2
02/21/2012 0.04" 0.00" 0.05" -0.04" 32.0° 17.3° 25.7° 88.3% 5.3 MPH 121.1w/m2
02/22/2012 0.06" 0.00" 0.05" -0.04" 40.4° 29.3° 33.5° 95.5% 8.0 MPH 133.6w/m2
02/23/2012 0.04" 0.00" 0.00" 0.00" 29.9° 12.5° 17.3° 68.8% 12.0 MPH 186.7w/m2
02/24/2012 0.06" 0.00" 0.01" -0.01" 33.1° 10.3° 20.7° 46.6% 4.2 MPH 195.7w/m2
02/25/2012 0.03" 0.00" 0.00" 0.00" 31.1° 8.9° 21.6° 92.9% 11.3 MPH 87.2w/m2
02/26/2012 0.04" 0.00" 0.07" -0.06" 22.2° 5.5° 13.6° 37.0% 5.4 MPH 144.8w/m2
02/27/2012 0.05" 0.00" 0.00" 0.00" 33.2° 17.3° 23.8° 96.1% 6.3 MPH 107.7w/m2
02/28/2012 0.02" 0.00" 0.04" -0.03" 25.1° 14.0° 19.5° 79.1% 2.6 MPH 52.4w/m2
02/29/2012 0.03" 0.00" 0.00" 0.00" 25.0° 13.2° 19.3° 94.5% 8.7 MPH 91.7w/m2
Totals: 1.02" 0.00" 0.63" -0.50" 40.8° 5.5° 21.8° 82.5% 4.7 MPH 118.4w/m2